Terminal Aerodrome Forecast
Issued by NWS Birmingham, AL

Home | Current Version | Previous Version | Text Only | Print | Product List | Glossary On
Versions: 1 2 3 4 5 6 7 8 9 10 11 12 13 14 15 16
955
FTUS44 KBMX 302347
TAFBHM
TAF
KBHM 302347Z 0100/0124 17010G15KT P6SM -RA VCTS OVC070CB
     FM010300 17010G15KT P6SM -RA OVC050
     FM010800 23010KT P6SM -RA OVC050
     FM011200 23015G20KT P6SM BKN050
     FM011600 23020G25KT P6SM SKC=

USA.gov is the U.S. government's official web portal to all federal, state and local government web resources and services.